createdAt,value
2019-05-02T00:01:31.039Z,11.20
2019-05-02T00:04:00.322Z,11.30
2019-05-02T00:06:30.176Z,11.30
2019-05-02T00:08:59.430Z,11.20
2019-05-02T00:11:30.143Z,11.20
2019-05-02T00:13:59.815Z,11.30
2019-05-02T00:16:29.812Z,11.30
2019-05-02T00:18:58.977Z,11.30
2019-05-02T00:21:28.429Z,11.30
2019-05-02T00:23:59.277Z,11.40
2019-05-02T00:26:28.646Z,11.30
2019-05-02T00:28:57.914Z,11.20
2019-05-02T00:31:27.124Z,10.90
2019-05-02T00:33:56.395Z,10.80
2019-05-02T00:36:25.623Z,10.70
2019-05-02T00:38:54.849Z,10.70
2019-05-02T00:41:23.994Z,10.70
2019-05-02T00:43:53.161Z,10.70
2019-05-02T00:46:22.416Z,10.80
2019-05-02T00:48:59.756Z,10.80
2019-05-02T00:51:28.966Z,10.90
2019-05-02T00:53:58.204Z,10.90
2019-05-02T00:56:27.366Z,11.00
2019-05-02T00:58:56.609Z,11.00
2019-05-02T01:01:37.680Z,10.90
2019-05-02T01:04:15.538Z,10.70
2019-05-02T01:06:49.128Z,10.60
2019-05-02T01:09:15.983Z,10.40
2019-05-02T01:11:45.305Z,10.40
2019-05-02T01:14:14.584Z,10.40
2019-05-02T01:16:43.785Z,10.30
2019-05-02T01:19:16.172Z,10.20
2019-05-02T01:21:44.037Z,10.20
2019-05-02T01:24:13.261Z,10.20
2019-05-02T01:26:49.807Z,10.20
2019-05-02T01:29:31.769Z,10.10
2019-05-02T01:32:20.008Z,10.10
2019-05-02T01:35:09.816Z,10.00
2019-05-02T01:37:57.978Z,10.00
2019-05-02T01:40:28.217Z,9.90
2019-05-02T01:42:58.008Z,9.90
2019-05-02T01:45:28.315Z,9.80
2019-05-02T01:47:57.839Z,9.80
2019-05-02T01:50:28.926Z,9.80
2019-05-02T01:52:58.532Z,9.70
2019-05-02T01:55:28.858Z,9.60
2019-05-02T01:57:58.065Z,9.40
2019-05-02T02:00:27.285Z,9.40
2019-05-02T02:02:56.520Z,9.20
2019-05-02T02:05:27.559Z,9.10
2019-05-02T02:07:57.520Z,9.00
2019-05-02T02:10:26.845Z,9.00
2019-05-02T02:13:03.630Z,9.00
2019-05-02T02:15:29.033Z,8.90
2019-05-02T02:17:57.842Z,8.80
2019-05-02T02:20:29.620Z,8.80
2019-05-02T02:23:26.700Z,8.70
2019-05-02T02:26:01.844Z,8.70
2019-05-02T02:28:32.232Z,8.70
2019-05-02T02:31:04.981Z,8.70
2019-05-02T02:33:32.863Z,8.70
2019-05-02T02:36:02.113Z,8.60
2019-05-02T02:38:33.643Z,8.60
2019-05-02T02:41:06.582Z,8.60
2019-05-02T02:43:34.893Z,8.60
2019-05-02T02:46:19.831Z,8.60
2019-05-02T02:48:49.050Z,8.60
2019-05-02T02:51:23.586Z,8.70
2019-05-02T02:53:49.255Z,8.70
2019-05-02T02:56:18.477Z,8.80
2019-05-02T02:58:48.248Z,8.80
2019-05-02T03:01:27.606Z,8.80
2019-05-02T03:03:48.769Z,8.80
2019-05-02T03:06:17.918Z,8.80
2019-05-02T03:08:49.156Z,8.80
2019-05-02T03:11:23.831Z,8.70
2019-05-02T03:14:07.492Z,8.70
2019-05-02T03:16:33.649Z,8.70
2019-05-02T03:19:23.230Z,8.70
2019-05-02T03:22:01.066Z,8.70
2019-05-02T03:24:27.560Z,8.70
2019-05-02T03:26:58.384Z,8.70
2019-05-02T03:29:39.743Z,8.70
2019-05-02T03:32:14.962Z,8.70
2019-05-02T03:34:45.245Z,8.70
2019-05-02T03:37:10.715Z,8.70
2019-05-02T03:39:32.766Z,8.80
2019-05-02T03:42:03.218Z,9.00
2019-05-02T03:44:33.239Z,9.20
2019-05-02T03:47:04.882Z,9.30
2019-05-02T03:49:33.592Z,9.60
2019-05-02T03:52:05.748Z,9.70
2019-05-02T03:54:34.135Z,9.70
2019-05-02T03:57:03.531Z,9.60
2019-05-02T03:59:38.674Z,9.50
2019-05-02T04:02:03.898Z,9.30
2019-05-02T04:04:33.902Z,9.20
2019-05-02T04:07:04.152Z,9.10
2019-05-02T04:09:41.844Z,9.00
2019-05-02T04:12:11.570Z,9.30
2019-05-02T04:14:38.891Z,9.40
2019-05-02T04:17:10.700Z,9.60
2019-05-02T04:19:40.626Z,9.80
2019-05-02T04:22:11.935Z,10.00
2019-05-02T04:24:47.970Z,10.10
2019-05-02T04:27:13.899Z,10.20
2019-05-02T04:29:43.443Z,10.20
2019-05-02T04:32:14.462Z,10.30
2019-05-02T04:34:48.832Z,10.40
2019-05-02T04:37:15.142Z,10.60
2019-05-02T04:39:58.910Z,10.70
2019-05-02T04:42:39.322Z,10.80
2019-05-02T04:45:21.646Z,10.80
2019-05-02T04:47:42.374Z,10.80
2019-05-02T04:50:29.925Z,10.80
2019-05-02T04:52:59.410Z,10.90
2019-05-02T04:55:33.032Z,10.90
2019-05-02T04:58:01.826Z,10.90
2019-05-02T05:00:30.732Z,10.90
2019-05-02T05:03:00.005Z,10.70
2019-05-02T05:05:31.300Z,10.50
2019-05-02T05:08:00.335Z,10.40
2019-05-02T05:10:40.101Z,10.10
2019-05-02T05:13:00.685Z,9.90
2019-05-02T05:15:38.256Z,9.80
2019-05-02T05:18:04.501Z,9.80
2019-05-02T05:20:32.002Z,9.70
2019-05-02T05:23:01.352Z,9.70
2019-05-02T05:25:37.946Z,9.60
2019-05-02T05:28:09.101Z,9.60
2019-05-02T05:30:45.443Z,9.60
2019-05-02T05:33:10.315Z,9.60
2019-05-02T05:35:43.245Z,9.70
2019-05-02T05:38:10.817Z,9.90
2019-05-02T05:40:40.132Z,10.00
2019-05-02T05:43:14.356Z,10.20
2019-05-02T05:45:50.750Z,10.40
2019-05-02T05:48:13.740Z,10.60
2019-05-02T05:50:42.645Z,10.80
2019-05-02T05:53:12.389Z,11.00
2019-05-02T05:55:43.039Z,11.00
2019-05-02T05:58:15.658Z,11.00
2019-05-02T06:00:45.823Z,11.20
2019-05-02T06:03:14.795Z,11.40
2019-05-02T06:05:44.104Z,11.50
2019-05-02T06:08:18.437Z,11.60
2019-05-02T06:10:45.327Z,11.70
2019-05-02T06:13:14.658Z,11.90
2019-05-02T06:15:45.913Z,12.10
2019-05-02T06:18:14.935Z,12.10
2019-05-02T06:20:44.247Z,12.30
2019-05-02T06:23:13.663Z,12.20
2019-05-02T06:25:43.123Z,12.20
2019-05-02T06:28:12.826Z,12.40
2019-05-02T06:30:42.130Z,12.40
2019-05-02T06:33:11.676Z,12.50
2019-05-02T06:35:41.091Z,12.50
2019-05-02T06:38:10.632Z,12.40
2019-05-02T06:40:44.734Z,12.60
2019-05-02T06:43:11.440Z,12.60
2019-05-02T06:45:40.999Z,12.70
2019-05-02T06:48:17.189Z,12.80
2019-05-02T06:50:41.543Z,12.90
2019-05-02T06:53:11.213Z,12.90
2019-05-02T06:55:40.568Z,13.00
2019-05-02T06:58:09.932Z,13.20
2019-05-02T07:00:56.050Z,13.40
2019-05-02T07:03:11.628Z,13.50
2019-05-02T07:05:41.264Z,13.70
2019-05-02T07:08:12.111Z,13.80
2019-05-02T07:10:44.774Z,13.90
2019-05-02T07:13:15.003Z,14.10
2019-05-02T07:16:02.727Z,14.10
2019-05-02T07:18:35.573Z,14.30
2019-05-02T07:21:06.663Z,14.50
2019-05-02T07:23:36.006Z,14.60
2019-05-02T07:26:05.382Z,14.70
2019-05-02T07:28:34.739Z,14.80
2019-05-02T07:31:06.563Z,14.90
2019-05-02T07:33:38.774Z,15.00
2019-05-02T07:36:08.134Z,15.10
2019-05-02T07:38:37.443Z,15.20
2019-05-02T07:41:06.720Z,15.30
2019-05-02T07:43:36.026Z,15.40
2019-05-02T07:46:05.600Z,15.40
2019-05-02T07:48:34.928Z,15.40
2019-05-02T07:51:04.228Z,15.50
2019-05-02T07:53:33.527Z,15.70
2019-05-02T07:56:02.891Z,15.80
2019-05-02T07:58:32.223Z,16.00
2019-05-02T08:01:01.843Z,16.10
2019-05-02T08:03:33.648Z,16.20
2019-05-02T08:06:02.362Z,16.30
2019-05-02T08:08:31.929Z,16.30
2019-05-02T08:11:02.868Z,16.40
2019-05-02T08:13:32.481Z,16.50
2019-05-02T08:16:01.946Z,16.60
2019-05-02T08:18:31.764Z,16.60
2019-05-02T08:21:01.294Z,16.70
2019-05-02T08:23:30.584Z,16.70
2019-05-02T08:25:59.902Z,16.70
2019-05-02T08:28:34.940Z,16.70
2019-05-02T08:31:04.376Z,16.80
2019-05-02T08:33:34.836Z,16.90
2019-05-02T08:36:05.055Z,16.90
2019-05-02T08:38:34.355Z,17.00
2019-05-02T08:41:03.686Z,17.10
2019-05-02T08:43:33.001Z,17.10
2019-05-02T08:46:02.483Z,17.10
2019-05-02T08:48:31.803Z,17.10
2019-05-02T08:51:01.123Z,17.10
2019-05-02T08:53:30.411Z,17.20
2019-05-02T08:55:59.745Z,17.20
2019-05-02T08:58:29.101Z,17.20
2019-05-02T09:00:58.417Z,17.00
2019-05-02T09:03:27.750Z,17.00
2019-05-02T09:06:05.588Z,17.00
2019-05-02T09:08:28.307Z,16.80
2019-05-02T09:10:57.624Z,16.70
2019-05-02T09:13:29.405Z,16.80
2019-05-02T09:15:57.986Z,16.90
2019-05-02T09:18:35.012Z,17.10
2019-05-02T09:20:58.381Z,17.20
2019-05-02T09:23:32.373Z,16.90
2019-05-02T09:25:58.781Z,16.70
2019-05-02T09:28:28.149Z,16.70
2019-05-02T09:31:02.289Z,16.60
2019-05-02T09:33:28.655Z,16.60
2019-05-02T09:35:58.075Z,16.50
2019-05-02T09:38:27.461Z,16.60
2019-05-02T09:40:56.763Z,16.60
2019-05-02T09:43:29.346Z,16.70
2019-05-02T09:45:57.311Z,16.70
2019-05-02T09:48:27.020Z,16.70
2019-05-02T09:50:58.117Z,16.70
2019-05-02T09:53:27.810Z,16.70
2019-05-02T09:55:58.010Z,16.70
2019-05-02T09:58:27.611Z,16.60
2019-05-02T10:01:22.465Z,16.40
2019-05-02T10:03:51.961Z,16.50
2019-05-02T10:06:22.979Z,16.70
2019-05-02T10:08:52.596Z,16.80
2019-05-02T10:11:26.131Z,16.80
2019-05-02T10:13:55.428Z,16.60
2019-05-02T10:16:27.298Z,16.60
2019-05-02T10:18:55.150Z,16.60
2019-05-02T10:21:24.505Z,16.70
2019-05-02T10:23:59.230Z,16.80
2019-05-02T10:26:25.051Z,16.90
2019-05-02T10:28:54.793Z,17.00
2019-05-02T10:31:27.522Z,17.10
2019-05-02T10:33:55.203Z,16.90
2019-05-02T10:36:24.535Z,17.00
2019-05-02T10:38:59.085Z,17.10
2019-05-02T10:41:24.923Z,17.00
2019-05-02T10:43:57.689Z,16.90
2019-05-02T10:46:37.705Z,16.90
2019-05-02T10:49:24.055Z,16.90
2019-05-02T10:51:53.999Z,17.00
2019-05-02T10:54:27.907Z,17.10
2019-05-02T10:56:55.231Z,17.20
2019-05-02T10:59:24.579Z,17.20
2019-05-02T11:02:12.891Z,17.10
2019-05-02T11:04:46.940Z,17.00
2019-05-02T11:07:17.231Z,17.10
2019-05-02T11:09:47.278Z,17.10
2019-05-02T11:12:25.530Z,17.20
2019-05-02T11:14:59.665Z,17.30
2019-05-02T11:17:38.128Z,17.30
2019-05-02T11:20:12.183Z,17.30
2019-05-02T11:22:42.751Z,17.30
2019-05-02T11:25:12.390Z,17.20
2019-05-02T11:27:41.922Z,17.30
2019-05-02T11:30:12.226Z,17.30
2019-05-02T11:32:41.773Z,17.30
2019-05-02T11:35:12.214Z,17.40
2019-05-02T11:37:42.217Z,17.60
2019-05-02T11:40:12.836Z,17.60
2019-05-02T11:42:42.429Z,17.70
2019-05-02T11:45:12.158Z,17.70
2019-05-02T11:47:42.271Z,17.60
2019-05-02T11:50:12.034Z,17.70
2019-05-02T11:52:42.417Z,17.80
2019-05-02T11:55:13.064Z,17.80
2019-05-02T11:57:42.697Z,17.90
2019-05-02T12:00:12.729Z,17.70
2019-05-02T12:02:59.283Z,17.70
2019-05-02T12:05:35.745Z,17.70
2019-05-02T12:08:07.735Z,17.70
2019-05-02T12:10:36.899Z,17.70
2019-05-02T12:13:10.691Z,17.70
2019-05-02T12:15:37.465Z,17.70
2019-05-02T12:18:06.862Z,17.60
2019-05-02T12:20:36.818Z,17.60
2019-05-02T12:23:08.991Z,17.60
2019-05-02T12:25:37.489Z,17.70
2019-05-02T12:28:08.061Z,17.60
2019-05-02T12:30:37.870Z,17.60
2019-05-02T12:33:07.420Z,17.50
2019-05-02T12:35:36.795Z,17.60
2019-05-02T12:38:06.273Z,17.70
2019-05-02T12:40:35.567Z,18.00
2019-05-02T12:43:04.915Z,17.90
2019-05-02T12:45:34.327Z,18.00
2019-05-02T12:48:03.698Z,17.90
2019-05-02T12:50:33.011Z,17.60
2019-05-02T12:53:02.951Z,17.50
2019-05-02T12:55:32.659Z,17.60
2019-05-02T12:58:03.125Z,17.60
2019-05-02T13:00:32.615Z,17.80
2019-05-02T13:03:11.720Z,17.90
2019-05-02T13:05:42.604Z,17.90
2019-05-02T13:08:12.403Z,18.20
2019-05-02T13:11:01.877Z,18.40
2019-05-02T13:13:25.994Z,18.50
2019-05-02T13:15:55.435Z,18.30
2019-05-02T13:18:27.282Z,18.20
2019-05-02T13:20:58.795Z,18.30
2019-05-02T13:23:46.542Z,18.30
2019-05-02T13:26:21.893Z,18.10
2019-05-02T13:28:48.717Z,18.00
2019-05-02T13:31:28.615Z,18.00
2019-05-02T13:34:14.718Z,17.90
2019-05-02T13:36:44.681Z,17.90
2019-05-02T13:39:39.661Z,17.90
2019-05-02T13:42:09.585Z,17.90
2019-05-02T13:44:45.351Z,18.10
2019-05-02T13:47:33.705Z,18.20
2019-05-02T13:50:04.097Z,18.40
2019-05-02T13:52:33.535Z,18.40
2019-05-02T13:55:03.478Z,18.30
2019-05-02T13:57:35.011Z,18.10
2019-05-02T14:00:04.856Z,18.30
2019-05-02T14:02:36.694Z,18.50
2019-05-02T14:05:07.867Z,18.80
2019-05-02T14:07:37.279Z,18.60
2019-05-02T14:10:14.365Z,18.60
2019-05-02T14:12:49.437Z,18.40
2019-05-02T14:15:22.157Z,18.30
2019-05-02T14:17:52.495Z,18.40
2019-05-02T14:20:22.979Z,18.40
2019-05-02T14:22:52.849Z,18.20
2019-05-02T14:25:22.602Z,17.90
2019-05-02T14:27:55.622Z,17.80
2019-05-02T14:30:35.974Z,17.90
2019-05-02T14:32:59.160Z,18.10
2019-05-02T14:35:32.440Z,18.10
2019-05-02T14:38:08.395Z,18.00
2019-05-02T14:40:43.419Z,17.90
2019-05-02T14:43:14.500Z,17.90
2019-05-02T14:45:45.218Z,18.00
2019-05-02T14:48:21.430Z,18.10
2019-05-02T14:50:47.714Z,18.40
2019-05-02T14:53:22.118Z,18.60
2019-05-02T14:55:49.751Z,18.70
2019-05-02T14:58:19.061Z,18.50
2019-05-02T15:00:50.000Z,18.10
2019-05-02T15:03:23.779Z,17.90
2019-05-02T15:05:50.398Z,17.60
2019-05-02T15:08:19.760Z,17.40
2019-05-02T15:10:53.956Z,17.20
2019-05-02T15:13:20.366Z,17.00
2019-05-02T15:15:49.732Z,16.90
2019-05-02T15:18:19.052Z,16.80
2019-05-02T15:20:48.429Z,16.70
2019-05-02T15:23:19.886Z,16.50
2019-05-02T15:25:52.571Z,16.30
2019-05-02T15:28:20.297Z,15.80
2019-05-02T15:31:04.999Z,15.00
2019-05-02T15:33:37.632Z,14.20
2019-05-02T15:36:07.743Z,13.40
2019-05-02T15:38:41.990Z,12.40
2019-05-02T15:41:12.613Z,11.90
2019-05-02T15:43:44.116Z,11.70
2019-05-02T15:46:14.948Z,11.60
2019-05-02T15:48:42.250Z,11.60
2019-05-02T15:51:12.355Z,11.60
2019-05-02T15:54:08.947Z,11.60
2019-05-02T15:57:05.493Z,11.50
2019-05-02T15:59:37.391Z,11.50
2019-05-02T16:02:13.226Z,11.40
2019-05-02T16:04:44.485Z,11.30
2019-05-02T16:07:13.798Z,11.30
2019-05-02T16:09:43.106Z,11.30
2019-05-02T16:12:12.479Z,11.20
2019-05-02T16:14:42.508Z,11.20
2019-05-02T16:17:12.528Z,11.30
2019-05-02T16:19:47.257Z,11.20
2019-05-02T16:22:17.969Z,11.20
2019-05-02T16:24:48.804Z,11.30
2019-05-02T16:27:21.992Z,11.30
2019-05-02T16:29:49.378Z,11.40
2019-05-02T16:32:31.032Z,11.50
2019-05-02T16:35:11.921Z,11.60
2019-05-02T16:37:36.674Z,11.80
2019-05-02T16:40:07.821Z,11.80
2019-05-02T16:42:37.564Z,11.80
2019-05-02T16:45:09.455Z,11.70
2019-05-02T16:47:38.812Z,11.80
2019-05-02T16:50:09.344Z,11.70
2019-05-02T16:52:43.632Z,11.70
2019-05-02T16:55:13.664Z,11.60
2019-05-02T16:57:42.412Z,11.50
2019-05-02T17:00:14.367Z,11.40
2019-05-02T17:02:46.331Z,11.40
2019-05-02T17:05:17.884Z,11.40
2019-05-02T17:08:18.690Z,11.30
2019-05-02T17:10:56.714Z,11.30
2019-05-02T17:13:27.320Z,11.20
2019-05-02T17:16:17.146Z,11.10
2019-05-02T17:18:48.220Z,11.00
2019-05-02T17:21:17.541Z,11.00
2019-05-02T17:23:49.692Z,11.00
2019-05-02T17:26:18.629Z,11.00
2019-05-02T17:28:48.133Z,11.00
2019-05-02T17:31:20.459Z,11.00
2019-05-02T17:33:50.972Z,11.00
2019-05-02T17:36:28.515Z,11.10
2019-05-02T17:38:54.589Z,11.10
2019-05-02T17:41:24.162Z,11.10
2019-05-02T17:43:56.659Z,11.20
2019-05-02T17:46:25.995Z,11.20
2019-05-02T17:48:55.560Z,11.40
2019-05-02T17:51:46.884Z,11.30
2019-05-02T17:54:35.332Z,11.40
2019-05-02T17:57:04.958Z,11.30
2019-05-02T17:59:37.760Z,11.20
2019-05-02T18:02:12.428Z,11.20
2019-05-02T18:04:38.904Z,11.20
2019-05-02T18:07:08.381Z,11.20
2019-05-02T18:09:37.813Z,11.30
2019-05-02T18:12:11.889Z,11.40
2019-05-02T18:14:38.335Z,11.50
2019-05-02T18:17:07.922Z,11.60
2019-05-02T18:19:37.331Z,11.60
2019-05-02T18:22:10.976Z,11.50
2019-05-02T18:24:44.815Z,11.50
2019-05-02T18:27:09.808Z,11.50
2019-05-02T18:29:42.576Z,11.40
2019-05-02T18:32:10.195Z,11.40
2019-05-02T18:34:41.649Z,11.40
2019-05-02T18:37:10.617Z,11.30
2019-05-02T18:39:44.767Z,11.30
2019-05-02T18:42:11.931Z,11.20
2019-05-02T18:44:42.021Z,11.20
2019-05-02T18:47:12.528Z,11.20
2019-05-02T18:49:42.522Z,11.20
2019-05-02T18:52:12.000Z,11.20
2019-05-02T18:54:43.971Z,11.20
2019-05-02T18:57:12.551Z,11.10
2019-05-02T18:59:42.709Z,11.10
2019-05-02T19:02:12.324Z,11.10
2019-05-02T19:04:42.345Z,11.00
2019-05-02T19:07:15.532Z,11.00
2019-05-02T19:09:51.194Z,10.90
2019-05-02T19:12:22.473Z,10.80
2019-05-02T19:14:45.247Z,10.80
2019-05-02T19:17:14.582Z,10.70
2019-05-02T19:19:43.926Z,10.70
2019-05-02T19:22:16.836Z,10.70
2019-05-02T19:24:44.634Z,10.60
2019-05-02T19:27:15.689Z,10.50
2019-05-02T19:29:48.117Z,10.50
2019-05-02T19:32:17.118Z,10.40
2019-05-02T19:34:47.435Z,10.40
2019-05-02T19:37:16.781Z,10.30
2019-05-02T19:39:48.761Z,10.10
2019-05-02T19:42:22.587Z,10.00
2019-05-02T19:44:49.052Z,9.90
2019-05-02T19:47:18.473Z,9.80
2019-05-02T19:49:52.266Z,9.80
2019-05-02T19:52:19.117Z,9.70
2019-05-02T19:54:48.510Z,9.70
2019-05-02T19:57:22.717Z,9.70
2019-05-02T19:59:48.897Z,9.70
2019-05-02T20:02:18.229Z,9.70
2019-05-02T20:04:47.536Z,9.70
2019-05-02T20:07:16.889Z,9.70
2019-05-02T20:09:47.398Z,9.70
2019-05-02T20:12:16.984Z,9.60
2019-05-02T20:14:47.677Z,9.60
2019-05-02T20:17:22.155Z,9.60
2019-05-02T20:19:57.845Z,9.60
2019-05-02T20:22:24.757Z,9.60
2019-05-02T20:25:01.173Z,9.60
2019-05-02T20:27:28.962Z,9.70
2019-05-02T20:29:58.621Z,9.70
2019-05-02T20:32:28.095Z,9.80
2019-05-02T20:35:16.455Z,9.80
2019-05-02T20:37:45.793Z,9.80
2019-05-02T20:40:31.842Z,9.80
2019-05-02T20:43:02.525Z,9.80
2019-05-02T20:45:32.390Z,9.80
2019-05-02T20:48:02.193Z,9.80
2019-05-02T20:50:31.908Z,9.70
2019-05-02T20:53:01.918Z,9.60
2019-05-02T20:55:32.308Z,9.60
2019-05-02T20:58:02.134Z,9.60
2019-05-02T21:00:32.675Z,9.50
2019-05-02T21:03:02.707Z,9.50
2019-05-02T21:05:42.780Z,9.50
2019-05-02T21:08:22.152Z,9.50
2019-05-02T21:10:52.325Z,9.50
2019-05-02T21:13:22.111Z,9.50
2019-05-02T21:15:52.404Z,9.50
2019-05-02T21:18:22.163Z,9.50
2019-05-02T21:20:52.558Z,9.60
2019-05-02T21:23:22.310Z,9.60
2019-05-02T21:25:52.501Z,9.50
2019-05-02T21:28:22.746Z,9.60
2019-05-02T21:30:52.487Z,9.60
2019-05-02T21:33:34.483Z,9.60
2019-05-02T21:36:03.807Z,9.60
2019-05-02T21:38:33.113Z,9.60
2019-05-02T21:41:02.660Z,9.60
2019-05-02T21:43:32.020Z,9.70
2019-05-02T21:46:02.386Z,9.70
2019-05-02T21:48:32.658Z,9.70
2019-05-02T21:51:22.646Z,9.70
2019-05-02T21:53:58.557Z,9.80
2019-05-02T21:56:37.909Z,9.70
2019-05-02T21:59:08.311Z,9.70
2019-05-02T22:01:46.363Z,9.70
2019-05-02T22:04:15.669Z,9.70
2019-05-02T22:06:44.991Z,9.70
2019-05-02T22:09:14.632Z,9.70
2019-05-02T22:11:43.941Z,9.70
2019-05-02T22:14:13.604Z,9.80
2019-05-02T22:16:43.175Z,9.90
2019-05-02T22:19:12.717Z,9.90
2019-05-02T22:21:43.047Z,9.90
2019-05-02T22:24:14.377Z,9.90
2019-05-02T22:26:43.668Z,9.90
2019-05-02T22:29:13.076Z,9.90
2019-05-02T22:31:43.059Z,9.90
2019-05-02T22:34:12.929Z,9.90
2019-05-02T22:36:42.702Z,9.90
2019-05-02T22:39:42.033Z,9.90
2019-05-02T22:42:12.761Z,9.90
2019-05-02T22:44:42.429Z,9.80
2019-05-02T22:47:13.927Z,9.80
2019-05-02T22:49:42.795Z,9.90
2019-05-02T22:52:14.375Z,9.80
2019-05-02T22:54:43.603Z,9.80
2019-05-02T22:57:14.304Z,9.70
2019-05-02T22:59:43.897Z,9.70
2019-05-02T23:02:13.770Z,9.70
2019-05-02T23:04:43.075Z,9.80
2019-05-02T23:07:12.709Z,9.80
2019-05-02T23:09:43.770Z,9.90
2019-05-02T23:12:13.480Z,9.90
2019-05-02T23:14:42.824Z,9.90
2019-05-02T23:17:12.862Z,9.90
2019-05-02T23:19:42.432Z,10.00
2019-05-02T23:22:12.811Z,9.90
2019-05-02T23:24:52.831Z,9.90
2019-05-02T23:27:39.698Z,10.00
2019-05-02T23:30:14.159Z,9.90
2019-05-02T23:32:43.195Z,9.90
2019-05-02T23:35:12.661Z,9.90
2019-05-02T23:37:42.358Z,9.80
2019-05-02T23:40:12.485Z,9.80
2019-05-02T23:42:41.964Z,9.90
2019-05-02T23:45:12.109Z,9.90
2019-05-02T23:47:42.167Z,9.90
2019-05-02T23:50:12.147Z,9.90
2019-05-02T23:52:41.688Z,9.90
2019-05-02T23:55:12.165Z,9.90
2019-05-02T23:57:42.174Z,9.90
